createdAt,value
2018-02-25T00:01:24.567Z,-4.50
2018-02-25T00:03:52.143Z,-4.60
2018-02-25T00:06:19.753Z,-4.60
2018-02-25T00:08:48.100Z,-4.70
2018-02-25T00:11:15.711Z,-4.70
2018-02-25T00:13:43.291Z,-4.70
2018-02-25T00:16:10.911Z,-4.70
2018-02-25T00:18:38.494Z,-4.70
2018-02-25T00:21:06.890Z,-4.80
2018-02-25T00:23:35.227Z,-4.80
2018-02-25T00:26:02.846Z,-4.90
2018-02-25T00:28:30.420Z,-4.80
2018-02-25T00:30:58.026Z,-4.80
2018-02-25T00:33:25.633Z,-4.90
2018-02-25T00:35:53.243Z,-4.90
2018-02-25T00:38:20.860Z,-4.90
2018-02-25T00:40:48.477Z,-4.90
2018-02-25T00:43:16.103Z,-5.00
2018-02-25T00:45:43.679Z,-5.00
2018-02-25T00:48:11.248Z,-5.00
2018-02-25T00:50:38.854Z,-5.10
2018-02-25T00:53:06.463Z,-5.10
2018-02-25T00:55:34.044Z,-5.20
2018-02-25T00:58:01.650Z,-5.20
2018-02-25T01:00:29.251Z,-5.20
2018-02-25T01:02:56.868Z,-5.20
2018-02-25T01:05:24.477Z,-5.10
2018-02-25T01:07:52.053Z,-5.10
2018-02-25T01:10:19.665Z,-5.10
2018-02-25T01:12:47.250Z,-5.20
2018-02-25T01:15:14.844Z,-5.20
2018-02-25T01:17:42.466Z,-5.30
2018-02-25T01:20:10.043Z,-5.30
2018-02-25T01:22:37.660Z,-5.30
2018-02-25T01:25:05.242Z,-5.20
2018-02-25T01:27:32.858Z,-5.30
2018-02-25T01:30:01.203Z,-5.30
2018-02-25T01:32:28.814Z,-5.30
2018-02-25T01:34:56.439Z,-5.30
2018-02-25T01:37:24.029Z,-5.40
2018-02-25T01:39:51.651Z,-5.40
2018-02-25T01:42:19.224Z,-5.50
2018-02-25T01:44:46.846Z,-5.50
2018-02-25T01:47:14.510Z,-5.50
2018-02-25T01:49:42.076Z,-5.50
2018-02-25T01:52:09.687Z,-5.60
2018-02-25T01:54:37.257Z,-5.60
2018-02-25T01:57:04.876Z,-5.50
2018-02-25T01:59:32.486Z,-5.60
2018-02-25T02:02:00.087Z,-5.60
2018-02-25T02:04:27.740Z,-5.60
2018-02-25T02:06:55.358Z,-5.70
2018-02-25T02:09:23.179Z,-5.70
2018-02-25T02:11:50.828Z,-5.60
2018-02-25T02:14:18.412Z,-5.70
2018-02-25T02:16:46.031Z,-5.70
2018-02-25T02:19:13.608Z,-5.80
2018-02-25T02:21:41.248Z,-5.90
2018-02-25T02:24:08.831Z,-5.90
2018-02-25T02:26:36.464Z,-5.90
2018-02-25T02:29:04.051Z,-5.90
2018-02-25T02:31:31.637Z,-5.80
2018-02-25T02:33:59.255Z,-5.70
2018-02-25T02:36:27.419Z,-5.70
2018-02-25T02:38:54.989Z,-5.70
2018-02-25T02:41:22.560Z,-5.70
2018-02-25T02:43:50.180Z,-5.80
2018-02-25T02:46:18.552Z,-5.80
2018-02-25T02:48:46.183Z,-5.90
2018-02-25T02:51:13.770Z,-5.80
2018-02-25T02:53:41.345Z,-5.80
2018-02-25T02:56:08.980Z,-5.80
2018-02-25T02:58:36.554Z,-5.90
2018-02-25T03:01:04.122Z,-5.90
2018-02-25T03:03:31.730Z,-6.00
2018-02-25T03:05:59.299Z,-6.00
2018-02-25T03:08:26.951Z,-6.10
2018-02-25T03:10:54.755Z,-6.10
2018-02-25T03:13:22.397Z,-6.10
2018-02-25T03:15:50.284Z,-6.10
2018-02-25T03:18:17.882Z,-6.10
2018-02-25T03:20:45.503Z,-6.10
2018-02-25T03:23:13.082Z,-6.00
2018-02-25T03:25:40.688Z,-6.00
2018-02-25T03:28:08.297Z,-6.00
2018-02-25T03:30:35.925Z,-6.00
2018-02-25T03:33:04.180Z,-6.00
2018-02-25T03:35:31.765Z,-6.10
2018-02-25T03:37:59.391Z,-6.10
2018-02-25T03:40:27.031Z,-6.20
2018-02-25T03:42:54.656Z,-6.20
2018-02-25T03:45:22.332Z,-6.20
2018-02-25T03:47:50.108Z,-6.30
2018-02-25T03:50:17.715Z,-6.30
2018-02-25T03:52:45.315Z,-6.20
2018-02-25T03:55:12.933Z,-6.20
2018-02-25T03:57:40.690Z,-6.20
2018-02-25T04:00:09.079Z,-6.10
2018-02-25T04:02:36.652Z,-6.10
2018-02-25T04:05:04.426Z,-6.10
2018-02-25T04:07:32.027Z,-6.10
2018-02-25T04:09:59.638Z,-6.10
2018-02-25T04:12:27.259Z,-6.20
2018-02-25T04:14:54.914Z,-6.20
2018-02-25T04:17:22.736Z,-6.20
2018-02-25T04:19:50.304Z,-6.30
2018-02-25T04:22:17.924Z,-6.30
2018-02-25T04:24:45.521Z,-6.20
2018-02-25T04:27:13.141Z,-6.20
2018-02-25T04:29:40.839Z,-6.10
2018-02-25T04:32:08.447Z,-6.10
2018-02-25T04:34:36.022Z,-6.10
2018-02-25T04:37:03.643Z,-6.10
2018-02-25T04:39:31.248Z,-6.10
2018-02-25T04:41:58.818Z,-6.10
2018-02-25T04:44:26.554Z,-6.10
2018-02-25T04:46:54.166Z,-6.20
2018-02-25T04:49:21.738Z,-6.20
2018-02-25T04:51:49.341Z,-6.30
2018-02-25T04:54:16.916Z,-6.30
2018-02-25T04:56:44.522Z,-6.30
2018-02-25T04:59:12.098Z,-6.40
2018-02-25T05:01:39.698Z,-6.40
2018-02-25T05:04:07.266Z,-6.40
2018-02-25T05:06:35.648Z,-6.40
2018-02-25T05:09:03.992Z,-6.40
2018-02-25T05:11:31.568Z,-6.40
2018-02-25T05:13:59.172Z,-6.50
2018-02-25T05:16:26.823Z,-6.40
2018-02-25T05:18:54.443Z,-6.40
2018-02-25T05:21:22.019Z,-6.40
2018-02-25T05:23:49.618Z,-6.50
2018-02-25T05:26:17.200Z,-6.50
2018-02-25T05:28:44.814Z,-6.60
2018-02-25T05:31:12.526Z,-6.60
2018-02-25T05:33:40.103Z,-6.60
2018-02-25T05:36:07.719Z,-6.60
2018-02-25T05:38:35.339Z,-6.60
2018-02-25T05:41:02.919Z,-6.60
2018-02-25T05:43:30.578Z,-6.50
2018-02-25T05:45:58.151Z,-6.60
2018-02-25T05:48:25.778Z,-6.50
2018-02-25T05:50:53.539Z,-6.50
2018-02-25T05:53:21.105Z,-6.60
2018-02-25T05:55:48.762Z,-6.60
2018-02-25T05:58:16.382Z,-6.70
2018-02-25T06:00:43.970Z,-6.70
2018-02-25T06:03:11.577Z,-6.80
2018-02-25T06:05:39.166Z,-6.80
2018-02-25T06:08:06.785Z,-6.80
2018-02-25T06:10:34.366Z,-6.80
2018-02-25T06:13:01.955Z,-6.80
2018-02-25T06:15:29.592Z,-6.90
2018-02-25T06:17:57.221Z,-6.90
2018-02-25T06:20:24.792Z,-6.90
2018-02-25T06:22:52.368Z,-6.90
2018-02-25T06:25:20.743Z,-7.00
2018-02-25T06:27:49.117Z,-7.00
2018-02-25T06:30:16.745Z,-7.00
2018-02-25T06:32:44.313Z,-7.00
2018-02-25T06:35:11.878Z,-7.00
2018-02-25T06:37:39.495Z,-7.00
2018-02-25T06:40:07.085Z,-7.10
2018-02-25T06:42:34.703Z,-7.00
2018-02-25T06:45:02.274Z,-7.00
2018-02-25T06:47:29.903Z,-7.10
2018-02-25T06:49:57.475Z,-7.10
2018-02-25T06:52:25.851Z,-7.10
2018-02-25T06:54:53.431Z,-7.10
2018-02-25T06:57:21.075Z,-7.10
2018-02-25T06:59:49.454Z,-7.10
2018-02-25T07:02:17.072Z,-7.10
2018-02-25T07:04:44.716Z,-7.10
2018-02-25T07:07:12.288Z,-7.10
2018-02-25T07:09:39.898Z,-7.00
2018-02-25T07:12:07.466Z,-7.00
2018-02-25T07:14:35.804Z,-6.90
2018-02-25T07:17:03.417Z,-7.00
2018-02-25T07:19:31.027Z,-6.90
2018-02-25T07:21:58.655Z,-6.80
2018-02-25T07:24:26.226Z,-6.80
2018-02-25T07:26:53.857Z,-6.80
2018-02-25T07:29:21.454Z,-6.80
2018-02-25T07:31:49.225Z,-6.80
2018-02-25T07:34:16.772Z,-6.80
2018-02-25T07:36:44.375Z,-6.70
2018-02-25T07:39:11.991Z,-6.60
2018-02-25T07:41:39.568Z,-6.60
2018-02-25T07:44:07.170Z,-6.60
2018-02-25T07:46:34.771Z,-6.50
2018-02-25T07:49:02.386Z,-6.50
2018-02-25T07:51:30.006Z,-6.40
2018-02-25T07:53:57.602Z,-6.30
2018-02-25T07:56:25.210Z,-6.30
2018-02-25T07:58:52.797Z,-6.20
2018-02-25T08:01:20.439Z,-6.10
2018-02-25T08:03:48.010Z,-6.00
2018-02-25T08:06:15.581Z,-6.00
2018-02-25T08:08:43.198Z,-5.90
2018-02-25T08:11:11.566Z,-5.70
2018-02-25T08:13:39.185Z,-5.70
2018-02-25T08:16:06.754Z,-5.60
2018-02-25T08:18:34.330Z,-5.60
2018-02-25T08:21:01.952Z,-5.50
2018-02-25T08:23:29.533Z,-5.50
2018-02-25T08:25:57.159Z,-5.50
2018-02-25T08:28:24.787Z,-5.40
2018-02-25T08:30:52.366Z,-5.40
2018-02-25T08:33:19.980Z,-5.30
2018-02-25T08:35:47.623Z,-5.20
2018-02-25T08:38:15.226Z,-5.10
2018-02-25T08:40:42.803Z,-5.00
2018-02-25T08:43:10.416Z,-4.80
2018-02-25T08:45:37.990Z,-4.70
2018-02-25T08:48:05.610Z,-4.60
2018-02-25T08:50:33.253Z,-4.40
2018-02-25T08:53:00.884Z,-4.30
2018-02-25T08:55:28.495Z,-4.20
2018-02-25T08:57:56.073Z,-4.00
2018-02-25T09:00:23.688Z,-3.80
2018-02-25T09:02:51.335Z,-3.70
2018-02-25T09:05:18.948Z,-3.60
2018-02-25T09:07:46.517Z,-3.50
2018-02-25T09:10:14.143Z,-3.40
2018-02-25T09:12:41.715Z,-3.20
2018-02-25T09:15:10.101Z,-2.90
2018-02-25T09:17:37.836Z,-3.00
2018-02-25T09:20:05.411Z,-2.80
2018-02-25T09:22:33.048Z,-2.70
2018-02-25T09:25:00.699Z,-2.60
2018-02-25T09:27:28.286Z,-2.60
2018-02-25T09:29:55.972Z,-2.50
2018-02-25T09:32:23.704Z,-2.50
2018-02-25T09:34:51.334Z,-2.40
2018-02-25T09:37:18.900Z,-2.40
2018-02-25T09:39:46.512Z,-2.30
2018-02-25T09:42:14.862Z,-2.10
2018-02-25T09:44:42.487Z,-2.20
2018-02-25T09:47:10.172Z,-1.90
2018-02-25T09:49:37.747Z,-1.60
2018-02-25T09:52:05.421Z,-1.40
2018-02-25T09:54:32.999Z,-1.20
2018-02-25T09:57:00.708Z,-1.10
2018-02-25T09:59:28.295Z,-1.20
2018-02-25T10:01:56.040Z,-1.20
2018-02-25T10:04:23.724Z,-1.20
2018-02-25T10:06:51.382Z,-1.10
2018-02-25T10:09:18.951Z,-1.10
2018-02-25T10:11:46.541Z,-1.10
2018-02-25T10:14:15.021Z,-1.30
2018-02-25T10:16:42.568Z,-1.30
2018-02-25T10:19:10.227Z,-1.40
2018-02-25T10:21:37.876Z,-1.40
2018-02-25T10:24:05.490Z,-1.50
2018-02-25T10:26:33.082Z,-1.50
2018-02-25T10:29:00.709Z,-1.60
2018-02-25T10:31:28.306Z,-1.60
2018-02-25T10:33:55.879Z,-1.50
2018-02-25T10:36:23.524Z,-1.50
2018-02-25T10:38:51.115Z,-1.50
2018-02-25T10:41:18.702Z,-1.50
2018-02-25T10:44:01.137Z,-1.40
2018-02-25T10:46:28.764Z,-1.30
2018-02-25T10:48:57.108Z,-1.20
2018-02-25T10:54:18.097Z,-1.20
2018-02-25T10:56:45.804Z,-1.20
2018-02-25T10:59:13.440Z,-1.10
2018-02-25T11:01:41.141Z,-1.10
2018-02-25T11:04:09.003Z,-1.10
2018-02-25T11:06:36.734Z,-1.00
2018-02-25T11:09:04.378Z,-1.00
2018-02-25T11:11:32.104Z,-0.90
2018-02-25T11:13:59.956Z,-0.90
2018-02-25T11:16:27.600Z,-0.90
2018-02-25T11:18:55.242Z,-1.00
2018-02-25T11:21:23.135Z,-0.90
2018-02-25T11:23:50.798Z,-1.00
2018-02-25T11:26:18.619Z,-1.00
2018-02-25T11:28:46.275Z,-1.00
2018-02-25T11:31:14.822Z,-0.90
2018-02-25T11:33:42.769Z,-1.00
2018-02-25T11:36:11.203Z,-0.90
2018-02-25T11:38:39.200Z,-0.90
2018-02-25T11:41:07.165Z,-0.90
2018-02-25T11:43:36.267Z,-0.80
2018-02-25T11:46:04.548Z,-0.80
2018-02-25T11:48:32.210Z,-0.80
2018-02-25T11:51:00.058Z,-0.80
2018-02-25T11:53:29.030Z,-0.70
2018-02-25T11:55:56.719Z,-0.70
2018-02-25T11:58:24.492Z,-0.60
2018-02-25T12:00:53.519Z,-0.70
2018-02-25T12:03:21.246Z,-0.70
2018-02-25T12:05:51.556Z,-0.70
2018-02-25T12:08:19.202Z,-0.70
2018-02-25T12:10:46.826Z,-0.70
2018-02-25T12:13:15.692Z,-0.70
2018-02-25T12:15:44.421Z,-0.70
2018-02-25T12:18:12.065Z,-0.70
2018-02-25T12:20:39.937Z,-0.60
2018-02-25T12:23:07.533Z,-0.50
2018-02-25T12:25:35.236Z,-0.40
2018-02-25T12:28:02.820Z,-0.30
2018-02-25T12:30:30.574Z,-0.20
2018-02-25T12:32:58.196Z,-0.10
2018-02-25T12:35:28.032Z,-0.10
2018-02-25T12:37:57.261Z,0.20
2018-02-25T12:40:24.963Z,0.10
2018-02-25T12:42:52.567Z,0.20
2018-02-25T12:45:20.216Z,0.30
2018-02-25T12:47:48.003Z,0.50
2018-02-25T12:50:15.713Z,0.80
2018-02-25T12:52:43.430Z,0.90
2018-02-25T12:55:11.073Z,1.00
2018-02-25T12:57:38.677Z,0.90
2018-02-25T13:00:09.155Z,0.90
2018-02-25T13:02:37.084Z,0.80
2018-02-25T13:05:04.677Z,0.60
2018-02-25T13:07:32.355Z,0.50
2018-02-25T13:09:59.947Z,0.40
2018-02-25T13:12:27.570Z,0.20
2018-02-25T13:14:55.150Z,0.10
2018-02-25T13:17:22.726Z,0.10
2018-02-25T13:19:50.368Z,0.30
2018-02-25T13:22:17.943Z,0.50
2018-02-25T13:24:45.578Z,0.60
2018-02-25T13:27:13.187Z,0.70
2018-02-25T13:29:40.802Z,0.90
2018-02-25T13:32:08.406Z,1.00
2018-02-25T13:34:35.985Z,1.20
2018-02-25T13:37:03.909Z,1.20
2018-02-25T13:39:31.543Z,1.20
2018-02-25T13:41:59.155Z,1.30
2018-02-25T13:44:26.762Z,1.20
2018-02-25T13:46:54.370Z,1.10
2018-02-25T13:49:21.930Z,0.90
2018-02-25T13:51:49.540Z,0.70
2018-02-25T13:54:17.117Z,0.50
2018-02-25T13:56:44.736Z,0.40
2018-02-25T13:59:12.299Z,0.30
2018-02-25T14:01:39.867Z,0.30
2018-02-25T14:04:07.477Z,0.30
2018-02-25T14:06:35.092Z,0.30
2018-02-25T14:09:02.662Z,0.40
2018-02-25T14:11:30.279Z,0.40
2018-02-25T14:13:57.907Z,0.40
2018-02-25T14:16:26.233Z,0.40
2018-02-25T14:18:53.853Z,0.40
2018-02-25T14:21:21.454Z,0.30
2018-02-25T14:23:49.045Z,0.20
2018-02-25T14:26:16.647Z,0.10
2018-02-25T14:28:44.267Z,0.00
2018-02-25T14:31:11.874Z,0.00
2018-02-25T14:33:39.552Z,-0.20
2018-02-25T14:36:07.128Z,-0.30
2018-02-25T14:38:34.736Z,-0.40
2018-02-25T14:41:02.349Z,-0.50
2018-02-25T14:43:29.945Z,-0.60
2018-02-25T14:45:57.629Z,-0.70
2018-02-25T14:48:25.202Z,-0.70
2018-02-25T14:50:52.814Z,-0.70
2018-02-25T14:53:20.446Z,-0.80
2018-02-25T14:55:48.075Z,-0.80
2018-02-25T14:58:15.851Z,-0.80
2018-02-25T15:00:43.506Z,-0.90
2018-02-25T15:03:11.159Z,-0.90
2018-02-25T15:05:38.774Z,-0.80
2018-02-25T15:08:06.391Z,-0.90
2018-02-25T15:10:34.027Z,-1.10
2018-02-25T15:13:01.646Z,-1.10
2018-02-25T15:15:29.212Z,-1.20
2018-02-25T15:17:56.849Z,-1.20
2018-02-25T15:20:24.460Z,-1.30
2018-02-25T15:22:52.030Z,-1.30
2018-02-25T15:25:19.702Z,-1.40
2018-02-25T15:27:47.320Z,-1.40
2018-02-25T15:30:15.206Z,-1.40
2018-02-25T15:32:43.234Z,-1.40
2018-02-25T15:35:10.798Z,-1.50
2018-02-25T15:37:38.419Z,-1.80
2018-02-25T15:40:06.018Z,-2.00
2018-02-25T15:42:33.777Z,-2.10
2018-02-25T15:45:01.392Z,-2.30
2018-02-25T15:47:29.007Z,-2.50
2018-02-25T15:49:56.588Z,-2.60
2018-02-25T15:52:25.051Z,-2.50
2018-02-25T15:54:52.660Z,-2.50
2018-02-25T15:57:20.263Z,-2.50
2018-02-25T15:59:47.885Z,-2.50
2018-02-25T16:02:15.470Z,-2.40
2018-02-25T16:04:43.122Z,-2.40
2018-02-25T16:07:10.713Z,-2.40
2018-02-25T16:09:38.340Z,-2.40
2018-02-25T16:12:05.965Z,-2.40
2018-02-25T16:14:33.615Z,-2.50
2018-02-25T16:17:01.354Z,-2.50
2018-02-25T16:19:28.994Z,-2.60
2018-02-25T16:21:56.629Z,-2.60
2018-02-25T16:24:24.240Z,-2.80
2018-02-25T16:26:52.846Z,-2.80
2018-02-25T16:29:20.425Z,-2.80
2018-02-25T16:31:48.000Z,-2.80
2018-02-25T16:34:15.610Z,-2.90
2018-02-25T16:36:43.286Z,-2.90
2018-02-25T16:39:12.095Z,-3.00
2018-02-25T16:41:39.676Z,-3.00
2018-02-25T16:44:07.973Z,-3.00
2018-02-25T16:46:35.567Z,-2.90
2018-02-25T16:49:03.323Z,-3.00
2018-02-25T16:51:31.725Z,-3.10
2018-02-25T16:53:59.387Z,-3.10
2018-02-25T16:56:27.272Z,-3.20
2018-02-25T16:58:54.908Z,-3.30
2018-02-25T17:01:22.529Z,-3.40
2018-02-25T17:03:50.137Z,-3.50
2018-02-25T17:06:17.765Z,-3.70
2018-02-25T17:08:46.379Z,-3.80
2018-02-25T17:11:13.991Z,-3.80
2018-02-25T17:13:42.091Z,-3.80
2018-02-25T17:16:09.705Z,-3.90
2018-02-25T17:18:37.368Z,-3.90
2018-02-25T17:21:05.359Z,-4.00
2018-02-25T17:23:32.944Z,-4.10
2018-02-25T17:26:01.335Z,-4.10
2018-02-25T17:28:29.891Z,-4.20
2018-02-25T17:30:57.463Z,-4.20
2018-02-25T17:33:25.839Z,-4.10
2018-02-25T17:35:53.438Z,-4.20
2018-02-25T17:38:21.051Z,-4.20
2018-02-25T17:40:50.733Z,-4.20
2018-02-25T17:43:18.802Z,-4.20
2018-02-25T17:45:47.818Z,-4.20
2018-02-25T17:48:15.465Z,-4.20
2018-02-25T17:50:43.075Z,-4.30
2018-02-25T17:53:10.646Z,-4.40
2018-02-25T17:55:38.312Z,-4.40
2018-02-25T17:58:06.639Z,-4.40
2018-02-25T18:00:33.570Z,-4.50
2018-02-25T18:03:01.186Z,-4.50
2018-02-25T18:05:29.539Z,-4.60
2018-02-25T18:07:57.175Z,-4.60
2018-02-25T18:10:24.742Z,-4.50
2018-02-25T18:12:52.377Z,-4.50
2018-02-25T18:15:20.023Z,-4.50
2018-02-25T18:17:47.630Z,-4.50
2018-02-25T18:20:15.241Z,-4.50
2018-02-25T18:22:43.621Z,-4.40
2018-02-25T18:25:12.118Z,-4.40
2018-02-25T18:27:39.752Z,-4.40
2018-02-25T18:30:08.090Z,-4.40
2018-02-25T18:32:35.693Z,-4.40
2018-02-25T18:35:04.259Z,-4.50
2018-02-25T18:37:31.831Z,-4.50
2018-02-25T18:40:00.228Z,-4.50
2018-02-25T18:42:27.863Z,-4.60
2018-02-25T18:44:55.445Z,-4.60
2018-02-25T18:47:23.029Z,-4.60
2018-02-25T18:49:50.915Z,-4.60
2018-02-25T18:52:18.490Z,-4.70
2018-02-25T18:54:46.082Z,-4.70
2018-02-25T18:57:13.695Z,-4.60
2018-02-25T18:59:41.310Z,-4.60
2018-02-25T19:02:10.174Z,-4.70
2018-02-25T19:04:37.963Z,-4.70
2018-02-25T19:07:05.540Z,-4.60
2018-02-25T19:09:33.880Z,-4.70
2018-02-25T19:12:01.622Z,-4.70
2018-02-25T19:14:29.223Z,-4.80
2018-02-25T19:16:56.829Z,-4.80
2018-02-25T19:19:24.405Z,-4.80
2018-02-25T19:21:52.019Z,-4.90
2018-02-25T19:24:19.746Z,-4.90
2018-02-25T19:26:47.354Z,-4.90
2018-02-25T19:29:15.699Z,-4.90
2018-02-25T19:31:43.318Z,-4.90
2018-02-25T19:34:10.895Z,-4.90
2018-02-25T19:36:44.069Z,-4.90
2018-02-25T19:39:17.325Z,-4.90
2018-02-25T19:41:50.495Z,-4.90
2018-02-25T19:44:18.119Z,-4.80
2018-02-25T19:46:45.731Z,-4.90
2018-02-25T19:49:13.346Z,-4.90
2018-02-25T19:51:40.923Z,-4.90
2018-02-25T19:54:08.562Z,-4.90
2018-02-25T19:56:36.182Z,-4.90
2018-02-25T19:59:03.755Z,-4.80
2018-02-25T20:01:31.375Z,-4.80
2018-02-25T20:03:58.946Z,-4.80
2018-02-25T20:06:26.574Z,-4.90
2018-02-25T20:08:54.256Z,-5.00
2018-02-25T20:11:21.831Z,-5.00
2018-02-25T20:13:49.444Z,-5.00
2018-02-25T20:16:17.175Z,-4.90
2018-02-25T20:18:45.517Z,-5.00
2018-02-25T20:21:13.267Z,-5.00
2018-02-25T20:23:40.891Z,-4.90
2018-02-25T20:26:08.490Z,-5.00
2018-02-25T20:28:36.988Z,-5.00
2018-02-25T20:31:04.604Z,-5.00
2018-02-25T20:33:33.117Z,-5.00
2018-02-25T20:36:00.723Z,-5.00
2018-02-25T20:38:28.293Z,-5.00
2018-02-25T20:40:55.941Z,-5.00
2018-02-25T20:43:23.930Z,-5.00
2018-02-25T20:45:51.536Z,-5.00
2018-02-25T20:48:19.195Z,-4.90
2018-02-25T20:50:46.767Z,-4.90
2018-02-25T20:53:14.493Z,-5.00
2018-02-25T20:55:42.890Z,-5.10
2018-02-25T20:58:10.467Z,-5.10
2018-02-25T21:00:38.042Z,-5.10
2018-02-25T21:03:05.669Z,-5.10
2018-02-25T21:05:33.362Z,-5.10
2018-02-25T21:08:00.969Z,-5.00
2018-02-25T21:10:28.587Z,-4.90
2018-02-25T21:12:56.214Z,-5.00
2018-02-25T21:15:23.915Z,-5.00
2018-02-25T21:17:51.519Z,-5.10
2018-02-25T21:20:19.900Z,-5.00
2018-02-25T21:22:48.239Z,-5.00
2018-02-25T21:25:15.860Z,-5.00
2018-02-25T21:27:43.434Z,-5.00
2018-02-25T21:30:11.063Z,-5.00
2018-02-25T21:32:38.685Z,-5.00
2018-02-25T21:35:06.303Z,-5.00
2018-02-25T21:37:33.889Z,-5.00
2018-02-25T21:40:01.691Z,-5.00
2018-02-25T21:42:29.274Z,-4.90
2018-02-25T21:44:56.907Z,-4.90
2018-02-25T21:47:25.272Z,-4.90
2018-02-25T21:49:54.977Z,-4.90
2018-02-25T21:52:24.891Z,-4.80
2018-02-25T21:54:57.831Z,-4.80
2018-02-25T21:57:31.894Z,-4.70
2018-02-25T22:00:05.346Z,-4.70
2018-02-25T22:02:40.681Z,-4.70
2018-02-25T22:05:09.216Z,-4.70
2018-02-25T22:07:36.863Z,-4.60
2018-02-25T22:10:05.342Z,-4.70
2018-02-25T22:12:32.912Z,-4.70
2018-02-25T22:15:00.715Z,-4.70
2018-02-25T22:17:28.284Z,-4.70
2018-02-25T22:19:56.114Z,-4.70
2018-02-25T22:22:23.780Z,-4.70
2018-02-25T22:24:51.599Z,-4.70
2018-02-25T22:27:19.183Z,-4.70
2018-02-25T22:29:46.820Z,-4.80
2018-02-25T22:32:14.464Z,-4.70
2018-02-25T22:34:42.043Z,-4.70
2018-02-25T22:37:10.469Z,-4.70
2018-02-25T22:39:38.097Z,-4.70
2018-02-25T22:42:05.688Z,-4.70
2018-02-25T22:44:33.310Z,-4.70
2018-02-25T22:47:00.882Z,-4.70
2018-02-25T22:49:28.862Z,-4.80
2018-02-25T22:51:56.439Z,-4.80
2018-02-25T22:54:24.207Z,-4.80
2018-02-25T22:56:53.199Z,-4.80
2018-02-25T22:59:20.775Z,-4.80
2018-02-25T23:01:49.010Z,-4.80
2018-02-25T23:04:16.705Z,-4.80
2018-02-25T23:06:44.279Z,-4.80
2018-02-25T23:09:12.025Z,-4.80
2018-02-25T23:11:40.138Z,-4.80
2018-02-25T23:14:07.733Z,-4.80
2018-02-25T23:16:35.378Z,-4.90
2018-02-25T23:19:03.318Z,-4.90
2018-02-25T23:21:31.727Z,-4.80
2018-02-25T23:24:00.071Z,-4.80
2018-02-25T23:26:27.695Z,-4.80
2018-02-25T23:28:55.376Z,-4.90
2018-02-25T23:31:22.962Z,-4.90
2018-02-25T23:33:50.885Z,-4.90
2018-02-25T23:36:18.672Z,-5.00
2018-02-25T23:38:46.385Z,-5.00
2018-02-25T23:41:14.760Z,-5.00
2018-02-25T23:43:43.098Z,-5.00
2018-02-25T23:46:10.726Z,-5.00
2018-02-25T23:48:38.318Z,-5.10
2018-02-25T23:51:05.925Z,-5.20
2018-02-25T23:53:33.590Z,-5.20
2018-02-25T23:56:01.933Z,-5.20
2018-02-25T23:58:29.547Z,-5.20
